Huvudsida
METAR-TAF:

METAR-TAF

Flygplatser :

Forūdgāh-e Lāmerd

Lāmerd, Iran

latitud: 27-22-22N, longitud: 53-11-20E, höjd: 408 m

Aktuellt väderrapport

Denna rapport gjordes för 42 minuter sedan, klockan 03:00 UTC
Vind 4 kt från nord
Temperatur 15°C
Fuktighet 100%
Tryck 1015 hPa
Sikt: 3000 m
Spridda moln på en höjd av 1000 ft
Få moln på en höjd av 2500 ft, Cumulonimbus.
Mulet på en höjd av 7000 ft
lätt regn

METAR: OISR 200300Z 36004KT 3000 -RA SCT010 FEW025CB OVC070 15/15 Q1014 A2996 RETSRA

Tid: 07:12 (03:42 UTC)


TAF: saknas

Aktuella väderrapporter och prognoser från 4000 flygplatser (METAR- och TAF-rapporter).

De tillgängliga stationerna syns som gula och röda prickar på kartan.

För musen över prickarna för att se namnen på stationerna.

Klicka sedan för att få väderrapporter och prognoser.

För att ändra kartan: Klicka på de gröna knapparna med ett svart kors på för att zooma in; den gröna knappen med ett streck på för att zooma ut; eller på de gröna pilarna för angränsande kartor.


METAR-TAF: